Date,TemperatureHighF,TemperatureAvgF,TemperatureLowF,DewpointHighF,DewpointAvgF,DewpointLowF,HumidityHigh,HumidityAvg,HumidityLow,PressureMaxIn,PressureMinIn,WindSpeedMaxMPH,WindSpeedAvgMPH,GustSpeedMaxMPH,PrecipitationSumIn
2013-2-1,35.9,30.0,24.0,19.6,11.1,6.2,61,45,36,30.12,29.62,6,2,14,0.00
2013-2-2,32.9,26.1,18.6,13.2,8.9,5.0,59,48,38,30.30,30.09,3,1,12,0.00
2013-2-3,28.0,26.2,22.8,23.0,20.2,12.9,85,78,53,30.09,29.77,1,0,4,0.00
2013-2-4,31.5,25.6,21.6,21.2,12.6,6.8,87,59,41,29.98,29.76,7,2,14,0.02
2013-2-5,31.2,26.3,21.7,22.9,14.1,8.4,84,60,48,30.07,29.98,1,0,4,0.00
2013-2-6,39.7,31.3,25.0,27.0,19.7,7.5,87,65,40,30.33,29.96,5,1,12,0.03
2013-2-7,34.4,26.0,17.3,9.3,5.9,3.3,66,43,31,30.57,30.34,4,0,7,0.00
2013-2-8,33.6,26.8,19.3,29.3,21.4,9.2,91,81,46,30.54,29.68,3,0,7,0.00
2013-2-9,23.3,19.9,15.8,20.0,16.4,11.0,88,86,81,30.24,29.64,4,2,11,0.00
2013-2-10,41.5,23.7,6.3,26.2,13.1,1.7,83,66,26,30.44,30.25,2,0,9,0.42
2013-2-11,40.2,30.2,16.8,37.8,25.6,10.1,92,83,66,30.40,29.65,0,0,2,0.10
2013-2-12,46.2,39.5,33.7,35.7,29.5,25.6,92,68,52,29.91,29.64,7,2,18,0.01
2013-2-13,46.6,35.8,27.3,27.7,25.3,21.9,81,67,46,29.91,29.73,2,0,6,0.00
2013-2-14,48.2,37.2,28.9,27.3,24.3,21.7,78,61,39,30.03,29.75,2,0,7,0.00
2013-2-15,53.9,39.9,29.4,35.2,30.7,23.1,88,71,49,30.04,29.93,2,0,6,0.00
2013-2-16,39.9,35.7,31.4,32.0,27.5,18.8,89,73,54,29.99,29.77,2,0,7,0.03
2013-2-17,31.4,23.4,19.1,20.6,12.0,2.6,83,63,44,29.77,29.44,8,3,15,0.00
2013-2-18,33.5,24.4,16.2,6.4,3.7,2.0,54,42,28,30.20,29.72,7,3,14,0.01
2013-2-19,47.8,36.9,23.3,41.7,24.4,5.1,91,62,44,30.21,29.61,1,0,13,0.31
2013-2-20,42.3,33.7,28.0,39.9,21.7,12.8,91,62,43,29.82,29.56,7,3,12,0.01
2013-2-21,35.6,29.1,25.8,16.7,14.7,11.5,66,55,42,30.24,29.81,6,2,13,0.00
2013-2-22,44.0,33.7,23.6,26.0,21.8,16.4,79,63,42,30.44,30.25,2,0,5,0.00
2013-2-23,40.1,35.4,30.6,32.6,29.1,24.4,90,78,67,30.38,29.96,2,0,4,0.03
2013-2-24,37.2,34.9,32.6,34.8,32.4,29.9,96,90,89,29.96,29.74,1,0,6,0.62
2013-2-25,40.5,35.7,31.5,33.2,31.1,28.6,90,84,71,30.28,29.94,1,0,3,0.22
2013-2-26,47.0,37.1,28.7,35.4,29.8,26.1,91,76,54,30.38,30.20,2,0,6,0.00
2013-2-27,42.5,39.7,36.1,39.8,36.6,29.9,91,88,78,30.20,29.60,4,1,13,1.41
2013-2-28,48.7,39.7,34.9,38.6,34.9,32.5,91,83,67,29.68,29.56,2,0,3,0.00